カンクン の空港の天気 - METARとTAF

カンクン国際空港 ( MMUN / CUN ) - メキシコ キンタナ・ロー州カンクン
飛行場実況気象(Metar)
観測時間04/21 11:55 CDT (04/21 16:55 UTC)
風向・風速東 6m/s
視程10km以上
天気現象
全天の4割程度の雲 雲底高度 460m
気温28℃
湿度55%
気圧1020hPa
METARMMUN 211655Z 09011KT 7SM SCT015 28/18 A3011 RMK 8/100
過去の天気等 Google飛行場航空写真 Wunderground天気予報

過去48時間のMETAR

飛行場予報(TAF)
発表時間: 4/21 06:16 CDT (4/21 11:16 UTC)
予報対象時間: 21日7時 CDT ~ 22日13時 CDT
風向・風速西北西 3m/s
視程10km以上
全天の4割程度の雲 雲底高度 460m
21日11時 CDT から
風向・風速北東 5m/s
視程10km以上
全天の4割程度の雲 雲底高度 460m
21日21時 CDT から
風向・風速東北東 3m/s
視程10km以上
全天の4割程度の雲 雲底高度 460m
22日11時 CDT から
風向・風速東 5m/s
視程10km以上
全天の4割程度の雲 雲底高度 460m
TAF MMUN 211116Z 2112/2218 30005KT P6SM SCT015 TX31/2119Z TN14/2112Z
FM211600 04010KT P6SM SCT015
FM220200 06005KT P6SM SCT015
FM221600 08010KT P6SM SCT015